Time;durP1;ratioP1;P1;durP2;ratioP2;P2;SDS_P1;SDS_P2;PMS_P1;PMS_P2;Temp;Humidity;BMP_temperature;BMP_pressure;BME280_temperature;BME280_humidity;BME280_pressure;Samples;Min_cycle;Max_cycle;Signal;HPM_P1;HPM_P2
2023/06/16 11:48:47;;;;;;;5.32;4.72;;;;;;;;;;6235473;22;20418;-80
2023/06/16 16:47:31;;;;;;;8.55;7.75;;;;;;;;;;6289327;22;21950;-81
2023/06/16 16:49:57;;;;;;;8.88;7.97;;;;;;;;;;6309106;22;20008;-81
2023/06/16 16:52:23;;;;;;;9.70;8.52;;;;;;;;;;6309718;22;20086;-81
2023/06/16 16:54:48;;;;;;;9.48;8.40;;;;;;;;;;6309947;22;20487;-80
2023/06/16 16:57:14;;;;;;;7.43;6.55;;;;;;;;;;6309500;22;20373;-81
2023/06/16 16:59:39;;;;;;;7.30;6.60;;;;;;;;;;6309624;22;20471;-86
2023/06/16 17:02:05;;;;;;;6.72;5.82;;;;;;;;;;6282280;22;20011;-84
2023/06/16 17:04:31;;;;;;;6.50;5.90;;;;;;;;;;6309468;22;20342;-82
2023/06/16 17:06:56;;;;;;;6.53;5.93;;;;;;;;;;6309776;22;20017;-83
2023/06/16 17:09:22;;;;;;;7.22;6.45;;;;;;;;;;6309836;22;20422;-82
2023/06/16 17:11:47;;;;;;;6.72;6.10;;;;;;;;;;6309482;22;20000;-81
2023/06/16 17:14:13;;;;;;;6.55;5.95;;;;;;;;;;6309333;22;20416;-82
2023/06/16 17:16:38;;;;;;;6.18;5.68;;;;;;;;;;6309561;22;20003;-83
2023/06/16 17:19:04;;;;;;;6.85;6.28;;;;;;;;;;6309959;22;20008;-83
2023/06/16 17:21:29;;;;;;;6.30;5.80;;;;;;;;;;6309711;22;19999;-89
2023/06/16 17:23:57;;;;;;;7.60;6.35;;;;;;;;;;6281827;22;20049;-84
2023/06/16 17:26:22;;;;;;;6.78;6.10;;;;;;;;;;6309774;22;20349;-83
2023/06/16 17:28:48;;;;;;;7.85;6.78;;;;;;;;;;6282397;22;20052;-84
2023/06/16 17:31:14;;;;;;;9.48;6.20;;;;;;;;;;6309630;22;20410;-86
2023/06/16 17:33:40;;;;;;;6.03;5.47;;;;;;;;;;6310004;22;19999;-90
2023/06/16 17:36:06;;;;;;;8.05;6.43;;;;;;;;;;6309620;22;20050;-90
2023/06/16 17:38:31;;;;;;;7.10;6.40;;;;;;;;;;6309116;22;20003;-88
2023/06/16 17:40:57;;;;;;;7.20;5.97;;;;;;;;;;6309384;22;19996;-87
2023/06/16 17:43:23;;;;;;;7.35;5.72;;;;;;;;;;6309190;22;20003;-84
2023/06/16 17:45:51;;;;;;;6.65;6.05;;;;;;;;;;6309137;22;19999;-85
2023/06/16 17:48:17;;;;;;;6.70;6.00;;;;;;;;;;6309139;22;20019;-85
2023/06/16 17:50:43;;;;;;;8.40;6.93;;;;;;;;;;6308975;22;20423;-81
2023/06/16 17:53:09;;;;;;;8.10;6.25;;;;;;;;;;6309227;22;19999;-83
2023/06/16 17:55:35;;;;;;;6.82;5.97;;;;;;;;;;6281619;22;20008;-82
2023/06/16 17:58:01;;;;;;;7.22;6.18;;;;;;;;;;6308931;22;20010;-86
2023/06/16 18:00:28;;;;;;;7.18;6.50;;;;;;;;;;6309760;22;19999;-87
2023/06/16 18:02:53;;;;;;;7.05;6.15;;;;;;;;;;6309538;22;20052;-86
2023/06/16 18:05:19;;;;;;;6.20;5.60;;;;;;;;;;6308882;22;19995;-88
2023/06/16 18:07:45;;;;;;;8.32;6.53;;;;;;;;;;6308869;22;20067;-91
2023/06/16 18:10:11;;;;;;;8.25;5.80;;;;;;;;;;6309215;22;19999;-86
2023/06/16 18:12:36;;;;;;;7.40;6.53;;;;;;;;;;6309556;22;20026;-87
2023/06/16 18:15:02;;;;;;;8.02;6.25;;;;;;;;;;6309576;22;19996;-88
2023/06/16 18:17:27;;;;;;;8.95;7.10;;;;;;;;;;6281478;22;20007;-88
2023/06/16 18:19:53;;;;;;;6.88;6.28;;;;;;;;;;6282352;22;20414;-86
2023/06/16 18:22:18;;;;;;;6.78;6.15;;;;;;;;;;6309565;22;20035;-93
2023/06/16 18:24:44;;;;;;;6.70;6.07;;;;;;;;;;6309134;22;20057;-85
2023/06/16 18:27:09;;;;;;;8.07;6.30;;;;;;;;;;6309167;22;20010;-90
2023/06/16 18:29:35;;;;;;;5.82;5.22;;;;;;;;;;6309056;22;20415;-89
2023/06/16 18:32:06;;;;;;;6.28;5.68;;;;;;;;;;6309209;22;20006;-86
2023/06/16 18:34:31;;;;;;;6.60;5.95;;;;;;;;;;6308747;22;19999;-87
2023/06/16 18:36:57;;;;;;;9.88;5.57;;;;;;;;;;6309071;22;20007;-87
2023/06/16 18:39:23;;;;;;;7.22;5.43;;;;;;;;;;6281775;22;20023;-89
2023/06/16 18:41:50;;;;;;;6.28;5.68;;;;;;;;;;6308878;22;20292;-85
2023/06/16 18:44:16;;;;;;;9.23;5.50;;;;;;;;;;6307744;22;20085;-84
2023/06/16 18:46:43;;;;;;;6.40;5.65;;;;;;;;;;6309021;22;20006;-85
2023/06/16 18:49:09;;;;;;;6.40;5.70;;;;;;;;;;6308639;22;20007;-82
2023/06/16 18:51:35;;;;;;;7.70;6.03;;;;;;;;;;6309194;22;20007;-84
2023/06/16 18:54:04;;;;;;;9.30;5.80;;;;;;;;;;6308452;22;20000;-84
2023/06/16 18:56:30;;;;;;;6.03;5.22;;;;;;;;;;6309124;22;20007;-84
2023/06/16 18:58:56;;;;;;;6.60;5.78;;;;;;;;;;6308524;22;20453;-87
2023/06/16 19:01:22;;;;;;;6.20;5.55;;;;;;;;;;6308877;22;20322;-81
2023/06/16 19:03:48;;;;;;;8.85;5.07;;;;;;;;;;6308587;22;20078;-83
2023/06/16 19:06:14;;;;;;;6.07;5.32;;;;;;;;;;6308575;22;20006;-82
2023/06/16 19:08:44;;;;;;;5.85;5.22;;;;;;;;;;6308587;22;20007;-82
2023/06/16 19:11:10;;;;;;;6.38;5.53;;;;;;;;;;6308874;22;20010;-93
2023/06/16 19:13:35;;;;;;;7.38;6.03;;;;;;;;;;6308478;22;19999;-81
2023/06/16 19:16:01;;;;;;;6.32;5.57;;;;;;;;;;6308707;22;20018;-81
2023/06/16 19:18:26;;;;;;;5.95;5.35;;;;;;;;;;6308594;22;20035;-81
2023/06/16 19:20:53;;;;;;;5.45;4.97;;;;;;;;;;6308864;22;20010;-80
2023/06/16 19:23:18;;;;;;;8.85;5.30;;;;;;;;;;6309306;22;20407;-80
2023/06/16 19:25:44;;;;;;;5.40;4.80;;;;;;;;;;6308742;22;20006;-90
2023/06/16 19:28:13;;;;;;;6.45;5.53;;;;;;;;;;6308858;22;19995;-80
2023/06/16 19:30:38;;;;;;;7.45;5.97;;;;;;;;;;6308765;22;20481;-81
2023/06/16 19:33:04;;;;;;;5.90;5.30;;;;;;;;;;6308558;22;20046;-81
2023/06/16 19:35:29;;;;;;;6.03;4.97;;;;;;;;;;6308512;22;20070;-81
2023/06/16 19:37:55;;;;;;;5.90;5.10;;;;;;;;;;6308622;22;20053;-81
2023/06/16 19:40:20;;;;;;;5.85;4.50;;;;;;;;;;6280952;22;20006;-81
2023/06/16 19:42:46;;;;;;;6.85;4.57;;;;;;;;;;6308684;22;20003;-81
2023/06/16 19:45:13;;;;;;;5.85;4.80;;;;;;;;;;6308674;22;20338;-81
2023/06/16 19:47:38;;;;;;;7.57;4.95;;;;;;;;;;6309726;22;19999;-85
2023/06/16 19:50:04;;;;;;;5.68;5.07;;;;;;;;;;6309268;22;20065;-82
2023/06/16 19:52:30;;;;;;;5.20;4.70;;;;;;;;;;6308738;22;20011;-81
2023/06/16 19:54:56;;;;;;;5.47;4.40;;;;;;;;;;6308645;22;19999;-91
2023/06/16 19:57:22;;;;;;;6.95;4.50;;;;;;;;;;6308912;22;20007;-82
2023/06/16 19:59:47;;;;;;;7.90;4.60;;;;;;;;;;6308866;22;19999;-84
2023/06/16 20:02:13;;;;;;;4.90;4.22;;;;;;;;;;6308915;22;20033;-81
2023/06/16 20:04:40;;;;;;;5.38;4.65;;;;;;;;;;6308713;22;20322;-81
2023/06/16 20:07:09;;;;;;;5.93;4.88;;;;;;;;;;6308667;22;20004;-93
2023/06/16 20:09:35;;;;;;;6.60;5.40;;;;;;;;;;6309272;22;20369;-80
2023/06/16 20:12:02;;;;;;;5.60;5.00;;;;;;;;;;6308476;22;20418;-81
2023/06/16 20:14:27;;;;;;;5.95;5.28;;;;;;;;;;6308801;22;20049;-81
2023/06/16 20:16:54;;;;;;;5.82;4.75;;;;;;;;;;6308521;22;20007;-81
2023/06/16 20:19:20;;;;;;;6.13;4.40;;;;;;;;;;6308579;22;20480;-81
2023/06/16 20:21:46;;;;;;;6.53;4.65;;;;;;;;;;6309870;22;19999;-81
2023/06/16 20:24:11;;;;;;;6.25;4.60;;;;;;;;;;6310401;22;20009;-83
2023/06/16 20:26:37;;;;;;;4.78;4.35;;;;;;;;;;6311193;22;20449;-83
2023/06/16 20:29:02;;;;;;;5.53;4.00;;;;;;;;;;6311101;22;20444;-89
2023/06/16 20:31:28;;;;;;;6.38;4.80;;;;;;;;;;6311247;22;19999;-82
2023/06/16 20:33:53;;;;;;;4.80;4.30;;;;;;;;;;6310799;22;20003;-82
2023/06/16 20:36:19;;;;;;;4.75;4.20;;;;;;;;;;6310783;22;20074;-81
2023/06/16 20:38:44;;;;;;;7.05;4.88;;;;;;;;;;6310261;22;20007;-81
2023/06/16 20:41:10;;;;;;;5.97;5.38;;;;;;;;;;6311131;22;19999;-90
2023/06/16 20:43:35;;;;;;;5.45;4.95;;;;;;;;;;6310363;22;20000;-82
2023/06/16 20:46:00;;;;;;;5.72;4.75;;;;;;;;;;6283046;22;20049;-81
2023/06/16 20:48:26;;;;;;;5.53;4.55;;;;;;;;;;6310555;22;20452;-93
2023/06/16 20:50:52;;;;;;;4.97;4.18;;;;;;;;;;6310403;22;20060;-84
2023/06/16 20:53:17;;;;;;;5.38;4.25;;;;;;;;;;6310943;22;20004;-92
2023/06/16 20:55:43;;;;;;;4.93;4.50;;;;;;;;;;6310938;22;20372;-84
2023/06/16 20:58:09;;;;;;;8.35;5.03;;;;;;;;;;6310629;22;20007;-82
2023/06/16 21:00:35;;;;;;;6.03;4.78;;;;;;;;;;6310369;22;20000;-85
2023/06/16 21:03:03;;;;;;;5.68;4.65;;;;;;;;;;6311208;22;20003;-85
2023/06/16 21:05:32;;;;;;;5.40;4.70;;;;;;;;;;6310995;22;20380;-83
2023/06/16 21:07:58;;;;;;;5.27;4.77;;;;;;;;;;6283509;22;20007;-87
2023/06/16 21:10:24;;;;;;;5.95;5.35;;;;;;;;;;6311103;22;20248;-91
2023/06/16 21:12:50;;;;;;;5.53;4.95;;;;;;;;;;6310591;22;20003;-89
2023/06/16 21:15:19;;;;;;;6.68;4.93;;;;;;;;;;6310581;22;19999;-85
2023/06/16 21:17:47;;;;;;;5.55;5.00;;;;;;;;;;6310483;22;20011;-88
2023/06/16 21:20:13;;;;;;;5.45;4.95;;;;;;;;;;6310392;22;20419;-82
2023/06/16 21:22:40;;;;;;;6.53;5.22;;;;;;;;;;6311124;22;20003;-89
2023/06/16 21:25:06;;;;;;;7.25;5.38;;;;;;;;;;6310256;22;20444;-81
2023/06/16 21:27:32;;;;;;;5.72;5.00;;;;;;;;;;6309573;22;20003;-81
2023/06/16 21:29:58;;;;;;;4.90;4.32;;;;;;;;;;6310529;22;20023;-82
2023/06/16 21:32:24;;;;;;;5.00;4.50;;;;;;;;;;6283197;22;20323;-85
